Time;durP1;ratioP1;P1;durP2;ratioP2;P2;SDS_P1;SDS_P2;PMS_P1;PMS_P2;Temp;Humidity;BMP_temperature;BMP_pressure;BME280_temperature;BME280_humidity;BME280_pressure;Samples;Min_cycle;Max_cycle;Signal;HPM_P1;HPM_P2
2022/02/18 16:56:51;;;;;;;13.00;1.75;;;7.70;52.60;;;;;;5090375;27;20390;-49
2022/02/18 16:59:18;;;;;;;7.65;1.83;;;7.60;54.20;;;;;;5071655;28;20048;-47
2022/02/18 17:01:44;;;;;;;9.25;1.60;;;7.60;54.90;;;;;;5070053;28;20045;-48
2022/02/18 17:04:11;;;;;;;11.70;2.28;;;7.60;55.50;;;;;;5069779;28;20499;-49
2022/02/18 17:06:38;;;;;;;7.00;1.63;;;7.60;56.00;;;;;;5069917;28;20110;-46
2022/02/18 17:09:05;;;;;;;9.70;1.98;;;7.60;53.60;;;;;;5069716;28;20135;-47
2022/02/18 17:11:32;;;;;;;8.30;1.95;;;7.70;54.00;;;;;;5069860;28;20032;-47
2022/02/18 17:13:59;;;;;;;8.60;2.20;;;7.70;54.10;;;;;;5069715;28;20075;-46
2022/02/18 17:16:26;;;;;;;8.65;2.15;;;7.70;53.90;;;;;;5068390;28;20437;-44
2022/02/18 17:18:53;;;;;;;7.93;1.90;;;7.70;54.30;;;;;;5073061;28;20051;-50
2022/02/18 17:21:19;;;;;;;13.45;2.38;;;7.70;54.60;;;;;;5069815;28;20449;-49
2022/02/18 17:23:46;;;;;;;15.90;2.90;;;7.60;54.50;;;;;;5069537;28;20414;-47
2022/02/18 17:26:13;;;;;;;13.25;2.50;;;7.60;55.80;;;;;;5068721;28;20067;-47
2022/02/18 17:28:40;;;;;;;18.52;3.55;;;7.50;56.60;;;;;;5069352;28;20483;-48
2022/02/18 17:31:07;;;;;;;10.02;2.60;;;7.50;57.50;;;;;;5069596;28;20041;-48
2022/02/18 17:33:35;;;;;;;15.98;2.88;;;7.40;57.30;;;;;;5072589;28;20045;-51
2022/02/18 17:36:03;;;;;;;12.85;2.63;;;7.30;57.40;;;;;;5069389;28;20329;-49
2022/02/18 17:38:30;;;;;;;16.45;3.05;;;7.30;58.20;;;;;;5069516;28;20401;-51
2022/02/18 17:40:57;;;;;;;14.35;2.90;;;7.30;58.10;;;;;;5068241;28;20142;-47
2022/02/18 17:43:24;;;;;;;15.85;3.00;;;7.30;57.20;;;;;;5069375;28;20051;-49
2022/02/18 17:45:50;;;;;;;12.80;2.60;;;7.20;58.40;;;;;;5071229;28;20045;-46
2022/02/18 17:48:17;;;;;;;10.38;2.67;;;7.20;58.40;;;;;;5068922;28;20033;-47
2022/02/18 17:50:45;;;;;;;12.55;2.90;;;7.20;58.90;;;;;;5070540;28;20049;-47
2022/02/18 17:53:12;;;;;;;22.33;3.50;;;7.10;58.70;;;;;;5069001;28;20044;-47
2022/02/18 17:55:39;;;;;;;17.80;3.30;;;7.10;59.70;;;;;;5069296;28;20478;-47
2022/02/18 17:58:06;;;;;;;13.45;2.42;;;7.10;59.50;;;;;;5068844;28;20491;-51
2022/02/18 18:00:34;;;;;;;17.05;3.13;;;7.10;59.50;;;;;;5074791;28;20093;-51
2022/02/18 18:03:01;;;;;;;14.60;2.92;;;7.10;59.10;;;;;;5068964;28;20075;-47
2022/02/18 18:05:28;;;;;;;18.60;3.25;;;7.10;59.30;;;;;;5073208;28;20433;-51
2022/02/18 18:07:55;;;;;;;9.18;2.70;;;7.10;59.50;;;;;;5057259;28;20415;-48
2022/02/18 18:10:21;;;;;;;14.27;3.00;;;7.10;59.80;;;;;;5058746;28;20067;-45
2022/02/18 18:12:48;;;;;;;13.07;3.25;;;7.10;59.50;;;;;;5055551;28;20079;-48
2022/02/18 18:15:15;;;;;;;16.08;2.60;;;7.10;61.30;;;;;;5056923;28;20033;-46
2022/02/18 18:17:42;;;;;;;15.85;2.75;;;7.10;61.70;;;;;;5055401;28;20037;-47
2022/02/18 18:20:09;;;;;;;15.48;2.40;;;7.00;65.40;;;;;;5055908;28;20036;-53
2022/02/18 18:22:35;;;;;;;11.32;1.90;;;6.30;82.40;;;;;;5055313;28;20044;-47
2022/02/18 18:25:03;;;;;;;8.77;1.90;;;5.40;90.70;;;;;;5055016;28;20090;-45
2022/02/18 18:27:33;;;;;;;7.40;1.63;;;4.70;92.40;;;;;;5054220;28;20045;-49
2022/02/18 18:29:59;;;;;;;8.48;1.67;;;4.50;93.50;;;;;;5061469;28;20060;-50
2022/02/18 18:32:26;;;;;;;8.05;1.73;;;4.40;93.50;;;;;;5059896;28;20049;-53
2022/02/18 18:34:53;;;;;;;7.90;1.55;;;4.30;93.60;;;;;;5056179;28;20033;-50
2022/02/18 18:37:20;;;;;;;6.75;1.80;;;4.20;93.90;;;;;;5053142;28;20044;-46
2022/02/18 18:39:46;;;;;;;12.77;1.63;;;4.20;94.70;;;;;;5054996;28;20033;-51
2022/02/18 18:42:16;;;;;;;7.65;1.50;;;4.20;93.90;;;;;;5059234;28;20033;-45
2022/02/18 18:44:43;;;;;;;10.23;1.63;;;4.20;93.30;;;;;;5054909;28;20095;-47
2022/02/18 18:47:09;;;;;;;4.93;1.23;;;4.10;93.40;;;;;;5055966;28;20094;-51
2022/02/18 18:49:37;;;;;;;6.35;1.50;;;4.10;92.60;;;;;;5054687;28;20040;-50
2022/02/18 18:52:04;;;;;;;8.23;1.48;;;4.00;93.20;;;;;;5043806;28;20045;-51
2022/02/18 18:54:31;;;;;;;7.95;1.40;;;3.90;92.80;;;;;;5055946;28;20072;-50
2022/02/18 18:56:58;;;;;;;6.63;1.60;;;3.90;92.80;;;;;;5054639;28;20087;-49
2022/02/18 18:59:24;;;;;;;6.90;1.95;;;3.90;92.80;;;;;;5055774;28;20041;-45
2022/02/18 19:01:51;;;;;;;7.18;1.52;;;3.90;92.10;;;;;;5054677;28;20029;-54
2022/02/18 19:04:20;;;;;;;9.63;1.92;;;3.90;92.40;;;;;;5048150;28;20491;-47
2022/02/18 19:06:47;;;;;;;6.40;1.73;;;3.90;92.20;;;;;;5059657;28;20055;-47
2022/02/18 19:09:13;;;;;;;10.52;2.60;;;3.80;91.90;;;;;;5054197;28;20049;-46
2022/02/18 19:11:40;;;;;;;9.85;2.20;;;3.80;91.70;;;;;;5057754;28;20037;-53
2022/02/18 19:14:09;;;;;;;9.55;2.08;;;3.80;91.70;;;;;;5054396;28;20099;-45
2022/02/18 19:16:36;;;;;;;8.95;1.77;;;3.80;91.50;;;;;;5056049;28;20479;-51
2022/02/18 19:19:03;;;;;;;9.70;2.03;;;3.80;91.20;;;;;;5053407;28;20053;-49
2022/02/18 19:21:31;;;;;;;16.92;2.92;;;3.80;91.00;;;;;;5054829;28;20033;-53
2022/02/18 19:23:58;;;;;;;9.68;1.88;;;3.80;90.90;;;;;;5054195;28;20045;-50
2022/02/18 19:26:25;;;;;;;9.02;2.00;;;3.90;90.60;;;;;;5053308;28;20045;-45
2022/02/18 19:28:51;;;;;;;10.45;2.28;;;3.90;90.90;;;;;;5054076;28;20322;-51
2022/02/18 19:31:18;;;;;;;10.35;2.38;;;3.90;90.60;;;;;;5053990;28;20099;-46
2022/02/18 19:33:45;;;;;;;10.57;2.30;;;3.90;90.40;;;;;;5054612;28;20049;-48
2022/02/18 19:36:12;;;;;;;12.05;3.25;;;3.90;90.30;;;;;;5053918;28;20040;-49
2022/02/18 19:38:38;;;;;;;10.45;1.85;;;4.00;90.20;;;;;;5054466;28;20045;-45
2022/02/18 19:41:05;;;;;;;8.60;1.70;;;4.00;90.40;;;;;;5054966;28;20376;-49
2022/02/18 19:43:32;;;;;;;10.02;1.67;;;4.00;90.30;;;;;;5053750;28;20103;-49
2022/02/18 19:45:59;;;;;;;8.30;1.55;;;4.00;90.60;;;;;;5054876;28;20491;-48
2022/02/18 19:48:26;;;;;;;8.10;1.40;;;4.00;90.60;;;;;;5055185;28;20045;-47
2022/02/18 19:50:55;;;;;;;8.52;1.20;;;4.00;90.90;;;;;;5053551;28;20053;-48
2022/02/18 19:53:22;;;;;;;7.93;1.55;;;3.90;90.90;;;;;;5058841;28;20134;-51
2022/02/18 19:55:49;;;;;;;7.35;1.70;;;3.90;91.20;;;;;;5053427;28;20049;-52
2022/02/18 19:58:22;;;;;;;8.05;2.00;;;3.90;91.10;;;;;;5052962;28;20139;-49
2022/02/18 20:00:49;;;;;;;9.93;2.13;;;3.80;91.60;;;;;;5053394;28;20041;-48
2022/02/18 20:03:16;;;;;;;10.32;1.92;;;3.80;91.50;;;;;;5053367;28;20043;-53
2022/02/18 20:05:43;;;;;;;8.10;1.60;;;3.80;91.50;;;;;;5052696;28;20063;-51
2022/02/18 20:08:10;;;;;;;6.85;1.98;;;3.80;91.60;;;;;;5051393;28;20128;-49
2022/02/18 20:10:36;;;;;;;12.98;1.92;;;3.80;91.80;;;;;;5053146;28;20404;-48
2022/02/18 20:13:04;;;;;;;6.70;1.60;;;3.80;91.50;;;;;;5052785;28;20060;-48
2022/02/18 20:15:30;;;;;;;12.40;2.47;;;3.80;91.40;;;;;;5053196;28;20041;-50
2022/02/18 20:17:57;;;;;;;10.07;1.95;;;3.80;91.30;;;;;;5049544;28;20075;-47
2022/02/18 20:20:24;;;;;;;13.43;2.70;;;3.80;91.20;;;;;;5047493;28;20065;-50
2022/02/18 20:22:51;;;;;;;9.50;2.10;;;3.80;91.00;;;;;;5053162;28;20043;-51
2022/02/18 20:25:20;;;;;;;10.85;1.92;;;3.90;91.00;;;;;;5052042;28;20045;-47
2022/02/18 20:27:47;;;;;;;8.88;2.10;;;3.90;90.90;;;;;;5052939;28;20091;-47
2022/02/18 20:30:13;;;;;;;13.48;2.78;;;3.90;90.60;;;;;;5052698;28;20087;-44
2022/02/18 20:32:40;;;;;;;8.70;2.38;;;3.90;90.70;;;;;;5052883;28;20044;-52
2022/02/18 20:35:07;;;;;;;10.00;2.10;;;4.00;90.50;;;;;;5052984;28;20504;-47
2022/02/18 20:37:36;;;;;;;12.05;2.20;;;4.00;90.10;;;;;;5052757;28;20048;-51
2022/02/18 20:40:04;;;;;;;13.82;2.70;;;4.00;90.40;;;;;;5053003;28;20065;-45
2022/02/18 20:42:30;;;;;;;12.10;2.38;;;4.00;90.40;;;;;;5053351;28;20083;-50
2022/02/18 20:44:57;;;;;;;11.73;2.75;;;4.00;90.20;;;;;;5052769;28;20071;-47
2022/02/18 20:47:24;;;;;;;11.85;2.22;;;4.10;90.40;;;;;;5055450;28;20048;-49
2022/02/18 20:49:50;;;;;;;10.60;2.45;;;4.10;90.30;;;;;;5052475;28;20099;-51
2022/02/18 20:52:17;;;;;;;17.67;3.25;;;4.10;90.30;;;;;;5053366;28;20045;-50
2022/02/18 20:54:44;;;;;;;14.85;2.65;;;4.00;90.00;;;;;;5052505;28;20065;-50
2022/02/18 20:57:11;;;;;;;11.73;2.65;;;4.00;90.10;;;;;;5052675;28;20041;-55
2022/02/18 20:59:49;;;;;;;8.45;2.17;;;4.10;90.00;;;;;;5057861;28;20075;-52
2022/02/18 21:02:16;;;;;;;9.27;1.95;;;4.00;90.10;;;;;;5052978;28;20045;-53
2022/02/18 21:04:42;;;;;;;9.75;2.33;;;4.10;89.40;;;;;;5052748;28;20041;-48
2022/02/18 21:07:11;;;;;;;10.32;2.15;;;4.00;89.60;;;;;;5052790;28;20045;-45
2022/02/18 21:09:37;;;;;;;15.40;2.42;;;4.10;88.40;;;;;;5052432;28;20091;-51
2022/02/18 21:12:04;;;;;;;10.38;2.03;;;4.10;88.20;;;;;;5054884;28;20076;-48
2022/02/18 21:14:31;;;;;;;9.02;2.35;;;4.10;88.00;;;;;;5052599;28;20102;-50
2022/02/18 21:16:57;;;;;;;8.15;2.25;;;4.10;88.10;;;;;;5052474;28;20484;-50
2022/02/18 21:19:24;;;;;;;7.32;1.95;;;4.10;87.90;;;;;;5052464;28;20037;-49
2022/02/18 21:21:51;;;;;;;11.40;2.05;;;4.10;88.10;;;;;;5052454;28;20044;-49
2022/02/18 21:24:18;;;;;;;12.43;2.53;;;4.10;87.20;;;;;;5055739;28;20442;-46
2022/02/18 21:26:44;;;;;;;11.75;2.30;;;4.10;87.50;;;;;;5052246;28;20056;-47
2022/02/18 21:29:11;;;;;;;11.82;2.50;;;4.20;87.70;;;;;;5052388;28;20052;-48
2022/02/18 21:31:38;;;;;;;13.52;2.17;;;4.20;87.70;;;;;;5052389;28;20036;-54
2022/02/18 21:34:12;;;;;;;12.63;2.20;;;4.10;88.00;;;;;;5052485;28;20068;-45
2022/02/18 21:36:40;;;;;;;12.55;2.28;;;4.10;88.10;;;;;;5052502;28;20439;-48
2022/02/18 21:39:07;;;;;;;14.95;2.38;;;4.10;87.60;;;;;;5052238;28;20041;-45
2022/02/18 21:41:34;;;;;;;10.75;2.00;;;4.10;88.00;;;;;;5057967;28;20041;-52
2022/02/18 21:44:01;;;;;;;11.10;2.00;;;4.10;87.80;;;;;;5056229;28;20067;-51
2022/02/18 21:46:29;;;;;;;10.20;1.98;;;4.10;87.50;;;;;;5056249;28;20048;-48
2022/02/18 21:48:56;;;;;;;7.47;2.10;;;4.20;87.60;;;;;;5057412;28;20056;-47
2022/02/18 21:51:23;;;;;;;8.23;1.95;;;4.20;86.40;;;;;;5055968;28;20048;-47
2022/02/18 21:53:50;;;;;;;8.23;2.05;;;4.20;86.00;;;;;;5056771;28;20126;-44
2022/02/18 21:56:16;;;;;;;7.75;1.63;;;4.20;86.60;;;;;;5055684;28;20114;-45
2022/02/18 21:58:43;;;;;;;7.28;1.77;;;4.20;86.40;;;;;;5055513;28;20513;-46
2022/02/18 22:01:10;;;;;;;8.23;1.88;;;4.20;86.70;;;;;;5055293;28;20041;-47
2022/02/18 22:03:37;;;;;;;9.95;1.92;;;4.20;86.80;;;;;;5055748;28;20044;-46
2022/02/18 22:06:04;;;;;;;7.28;2.13;;;4.10;86.20;;;;;;5055474;28;20052;-48
2022/02/18 22:08:30;;;;;;;11.52;2.30;;;4.20;86.00;;;;;;5055254;28;20446;-51
2022/02/18 22:10:57;;;;;;;13.20;2.20;;;4.10;86.00;;;;;;5055188;28;20072;-47
2022/02/18 22:13:30;;;;;;;12.27;2.60;;;4.10;85.90;;;;;;5055650;28;20045;-47
2022/02/18 22:15:57;;;;;;;11.50;2.40;;;4.10;85.80;;;;;;5055304;28;20411;-45
2022/02/18 22:18:24;;;;;;;12.40;2.63;;;4.10;85.70;;;;;;5055405;28;20044;-49
2022/02/18 22:20:51;;;;;;;10.63;2.40;;;4.00;85.50;;;;;;5058521;28;20419;-52
2022/02/18 22:23:17;;;;;;;6.75;1.70;;;4.10;85.40;;;;;;5055329;28;20052;-46
2022/02/18 22:25:44;;;;;;;4.30;1.30;;;4.00;85.10;;;;;;5054784;28;20099;-53
2022/02/18 22:28:12;;;;;;;6.45;1.60;;;4.00;84.30;;;;;;5050906;28;20416;-47
2022/02/18 22:30:58;;;;;;;7.82;1.63;;;4.00;84.10;;;;;;5055383;28;20103;-50
2022/02/18 22:33:26;;;;;;;7.82;1.60;;;4.10;84.30;;;;;;5055316;28;20041;-49
2022/02/18 22:35:52;;;;;;;9.45;1.73;;;4.10;83.20;;;;;;5055164;28;20103;-45
2022/02/18 22:38:19;;;;;;;9.70;1.67;;;4.10;83.30;;;;;;5055162;28;20384;-46
2022/02/18 22:40:46;;;;;;;7.80;1.90;;;4.10;82.50;;;;;;5054815;28;20099;-50
2022/02/18 22:43:13;;;;;;;4.95;1.10;;;4.10;83.20;;;;;;5054950;28;20045;-47
2022/02/18 22:45:39;;;;;;;8.23;1.70;;;4.00;83.20;;;;;;5054959;28;20490;-49
2022/02/18 22:48:06;;;;;;;5.95;1.60;;;4.00;82.50;;;;;;5054746;28;20040;-46
2022/02/18 22:50:33;;;;;;;8.60;1.60;;;4.00;82.40;;;;;;5054903;28;20072;-48
2022/02/18 22:52:59;;;;;;;8.85;1.75;;;4.00;82.10;;;;;;5054658;28;20391;-49
2022/02/18 22:55:26;;;;;;;6.57;1.77;;;4.00;82.30;;;;;;5054569;28;20499;-44
2022/02/18 22:57:53;;;;;;;8.88;2.38;;;4.00;81.90;;;;;;5059548;28;20526;-47
2022/02/18 23:00:20;;;;;;;9.80;1.50;;;4.00;81.40;;;;;;5054555;28;20106;-51
2022/02/18 23:02:46;;;;;;;5.90;1.60;;;4.00;81.00;;;;;;5058419;28;20036;-47
2022/02/18 23:05:13;;;;;;;7.32;1.38;;;4.00;81.50;;;;;;5053455;28;20503;-51
2022/02/18 23:07:40;;;;;;;11.27;1.60;;;4.00;82.00;;;;;;5057274;28;20041;-48
2022/02/18 23:10:07;;;;;;;5.50;1.30;;;4.00;81.00;;;;;;5053065;28;20466;-45
2022/02/18 23:12:33;;;;;;;8.55;2.45;;;4.00;80.80;;;;;;5056068;28;20040;-47
2022/02/18 23:15:00;;;;;;;5.80;1.52;;;4.00;81.00;;;;;;5054462;28;20098;-45
2022/02/18 23:17:30;;;;;;;7.05;1.90;;;4.00;81.40;;;;;;5053591;28;20037;-46
2022/02/18 23:19:56;;;;;;;6.40;1.67;;;4.00;81.50;;;;;;5054313;28;20399;-49
2022/02/18 23:22:23;;;;;;;7.32;1.70;;;4.00;81.00;;;;;;5054158;28;20071;-49
2022/02/18 23:24:50;;;;;;;7.35;1.30;;;4.00;81.20;;;;;;5058933;28;20037;-45
2022/02/18 23:27:18;;;;;;;7.00;1.20;;;3.90;81.50;;;;;;5054349;28;20566;-45
2022/02/18 23:29:44;;;;;;;7.60;1.67;;;3.90;81.50;;;;;;5053398;28;20044;-47
2022/02/18 23:32:12;;;;;;;7.45;1.65;;;3.90;81.50;;;;;;5054132;28;20041;-48
